LSZR/ACH METAR and TAF weather

Enter ICAO airport designator
Station Type Date Time Source
LSZR METAR 2020/09/20 10:20 UTC NOAA

LSZR 201020Z 31006KT 6000 BKN012 18/15 Q1015 NOSIG RMK C


Station Type Date Time Source
LSZR Decoded METAR 2020/09/20 10:20 UTC NOAA

Saint Gallen-Altenrhein, Switzerland (LSZR) 47-29-06N 009-33-43E
Sep 20, 2020 - 06:20 AM EDT / 2020.09.20 1020 UTC
Wind: from the NW (310 degrees) at 7 MPH (6 KT):0
Visibility: 3 mile(s):0
Sky conditions: mostly cloudy
Temperature: 64 F (18 C)
Dew Point: 59 F (15 C)
Relative Humidity: 82%
Pressure (altimeter): 29.97 in. Hg (1015 hPa)
ob: LSZR 201020Z 31006KT 6000 BKN012 18/15 Q1015 NOSIG RMK C
cycle: 10

Station Type Date Time Source
LSZR TAF 2014/12/22 20:03 UTC NOAA

TAF
AMD LSZR 222054Z 2220/2224 CNL

Example: see airport list